sensor_id;sensor_type;location;lat;lon;timestamp;temperature;humidity
74364;DHT22;62797;49.740;10.154;2022-11-20T00:00:24;1.50;81.60
74364;DHT22;62797;49.740;10.154;2022-11-20T00:02:49;1.50;81.70
74364;DHT22;62797;49.740;10.154;2022-11-20T00:05:15;1.60;81.60
74364;DHT22;62797;49.740;10.154;2022-11-20T00:07:40;1.60;81.50
74364;DHT22;62797;49.740;10.154;2022-11-20T00:10:07;1.60;81.60
74364;DHT22;62797;49.740;10.154;2022-11-20T00:12:32;1.60;81.70
74364;DHT22;62797;49.740;10.154;2022-11-20T00:14:58;1.60;81.10
74364;DHT22;62797;49.740;10.154;2022-11-20T00:17:24;1.50;81.30
74364;DHT22;62797;49.740;10.154;2022-11-20T00:19:52;1.50;81.50
74364;DHT22;62797;49.740;10.154;2022-11-20T00:22:18;1.50;81.60
74364;DHT22;62797;49.740;10.154;2022-11-20T00:24:43;1.50;81.80
74364;DHT22;62797;49.740;10.154;2022-11-20T00:27:09;1.50;81.70
74364;DHT22;62797;49.740;10.154;2022-11-20T00:29:34;1.60;81.90
74364;DHT22;62797;49.740;10.154;2022-11-20T00:32:00;1.60;82.00
74364;DHT22;62797;49.740;10.154;2022-11-20T00:34:25;1.60;82.00
74364;DHT22;62797;49.740;10.154;2022-11-20T00:36:51;1.60;81.90
74364;DHT22;62797;49.740;10.154;2022-11-20T00:39:17;1.60;81.30
74364;DHT22;62797;49.740;10.154;2022-11-20T00:41:42;1.60;81.70
74364;DHT22;62797;49.740;10.154;2022-11-20T00:44:08;1.60;81.50
74364;DHT22;62797;49.740;10.154;2022-11-20T00:46:33;1.60;81.80
74364;DHT22;62797;49.740;10.154;2022-11-20T00:48:59;1.70;82.00
74364;DHT22;62797;49.740;10.154;2022-11-20T00:51:26;1.60;81.80
74364;DHT22;62797;49.740;10.154;2022-11-20T00:53:55;1.60;81.90
74364;DHT22;62797;49.740;10.154;2022-11-20T00:56:21;1.60;81.70
74364;DHT22;62797;49.740;10.154;2022-11-20T00:58:48;1.60;81.50
74364;DHT22;62797;49.740;10.154;2022-11-20T01:01:20;1.60;81.60
74364;DHT22;62797;49.740;10.154;2022-11-20T01:03:48;1.60;81.70
74364;DHT22;62797;49.740;10.154;2022-11-20T01:06:18;1.50;81.80
74364;DHT22;62797;49.740;10.154;2022-11-20T01:08:44;1.60;81.90
74364;DHT22;62797;49.740;10.154;2022-11-20T01:11:13;1.60;81.40
74364;DHT22;62797;49.740;10.154;2022-11-20T01:13:40;1.60;81.40
74364;DHT22;62797;49.740;10.154;2022-11-20T01:16:07;1.60;81.60
74364;DHT22;62797;49.740;10.154;2022-11-20T01:18:34;1.60;81.60
74364;DHT22;62797;49.740;10.154;2022-11-20T01:21:01;1.60;81.40
74364;DHT22;62797;49.740;10.154;2022-11-20T01:23:33;1.60;81.30
74364;DHT22;62797;49.740;10.154;2022-11-20T01:26:01;1.60;81.60
74364;DHT22;62797;49.740;10.154;2022-11-20T01:28:27;1.60;81.50
74364;DHT22;62797;49.740;10.154;2022-11-20T01:30:53;1.60;81.70
74364;DHT22;62797;49.740;10.154;2022-11-20T01:33:18;1.60;81.50
74364;DHT22;62797;49.740;10.154;2022-11-20T01:35:44;1.60;81.60
74364;DHT22;62797;49.740;10.154;2022-11-20T01:38:10;1.60;81.70
74364;DHT22;62797;49.740;10.154;2022-11-20T01:40:35;1.60;81.70
74364;DHT22;62797;49.740;10.154;2022-11-20T01:43:19;1.60;81.30
74364;DHT22;62797;49.740;10.154;2022-11-20T01:45:53;1.60;81.10
74364;DHT22;62797;49.740;10.154;2022-11-20T01:48:22;1.60;81.80
74364;DHT22;62797;49.740;10.154;2022-11-20T01:50:48;1.60;81.90
74364;DHT22;62797;49.740;10.154;2022-11-20T01:53:16;1.50;81.50
74364;DHT22;62797;49.740;10.154;2022-11-20T01:55:49;1.50;81.20
74364;DHT22;62797;49.740;10.154;2022-11-20T01:58:20;1.50;81.20
74364;DHT22;62797;49.740;10.154;2022-11-20T02:00:47;1.50;81.30
74364;DHT22;62797;49.740;10.154;2022-11-20T02:03:16;1.50;81.70
74364;DHT22;62797;49.740;10.154;2022-11-20T02:08:18;1.50;81.90
74364;DHT22;62797;49.740;10.154;2022-11-20T02:10:44;1.50;82.00
74364;DHT22;62797;49.740;10.154;2022-11-20T02:13:10;1.60;82.20
74364;DHT22;62797;49.740;10.154;2022-11-20T02:15:54;1.60;82.30
74364;DHT22;62797;49.740;10.154;2022-11-20T02:18:20;1.60;81.40
74364;DHT22;62797;49.740;10.154;2022-11-20T02:20:49;1.50;81.60
74364;DHT22;62797;49.740;10.154;2022-11-20T02:23:29;1.60;81.80
74364;DHT22;62797;49.740;10.154;2022-11-20T02:26:00;1.50;81.70
74364;DHT22;62797;49.740;10.154;2022-11-20T02:28:27;1.50;81.60
74364;DHT22;62797;49.740;10.154;2022-11-20T02:30:53;1.50;82.00
74364;DHT22;62797;49.740;10.154;2022-11-20T02:33:18;1.50;82.00
74364;DHT22;62797;49.740;10.154;2022-11-20T02:35:45;1.50;81.90
74364;DHT22;62797;49.740;10.154;2022-11-20T02:38:11;1.40;81.20
74364;DHT22;62797;49.740;10.154;2022-11-20T02:40:38;1.40;81.00
74364;DHT22;62797;49.740;10.154;2022-11-20T02:43:03;1.40;81.10
74364;DHT22;62797;49.740;10.154;2022-11-20T02:45:29;1.30;81.30
74364;DHT22;62797;49.740;10.154;2022-11-20T02:47:55;1.30;81.30
74364;DHT22;62797;49.740;10.154;2022-11-20T02:50:20;1.40;81.60
74364;DHT22;62797;49.740;10.154;2022-11-20T02:52:46;1.30;81.20
74364;DHT22;62797;49.740;10.154;2022-11-20T02:55:12;1.40;81.30
74364;DHT22;62797;49.740;10.154;2022-11-20T02:57:37;1.30;81.30
74364;DHT22;62797;49.740;10.154;2022-11-20T03:00:04;1.30;81.50
74364;DHT22;62797;49.740;10.154;2022-11-20T03:02:31;1.30;81.00
74364;DHT22;62797;49.740;10.154;2022-11-20T03:04:56;1.20;81.10
74364;DHT22;62797;49.740;10.154;2022-11-20T03:07:22;1.20;81.30
74364;DHT22;62797;49.740;10.154;2022-11-20T03:09:48;1.20;81.20
74364;DHT22;62797;49.740;10.154;2022-11-20T03:12:14;1.20;80.80
74364;DHT22;62797;49.740;10.154;2022-11-20T03:14:40;1.20;80.90
74364;DHT22;62797;49.740;10.154;2022-11-20T03:17:05;1.20;81.00
74364;DHT22;62797;49.740;10.154;2022-11-20T03:19:31;1.10;81.40
74364;DHT22;62797;49.740;10.154;2022-11-20T03:21:57;1.10;81.60
74364;DHT22;62797;49.740;10.154;2022-11-20T03:24:22;1.10;81.60
74364;DHT22;62797;49.740;10.154;2022-11-20T03:26:48;1.10;81.60
74364;DHT22;62797;49.740;10.154;2022-11-20T03:29:13;1.10;81.70
74364;DHT22;62797;49.740;10.154;2022-11-20T03:31:40;1.10;81.70
74364;DHT22;62797;49.740;10.154;2022-11-20T03:34:07;1.10;81.80
74364;DHT22;62797;49.740;10.154;2022-11-20T03:36:33;1.10;81.60
74364;DHT22;62797;49.740;10.154;2022-11-20T03:38:58;1.00;81.70
74364;DHT22;62797;49.740;10.154;2022-11-20T03:41:26;1.10;82.20
74364;DHT22;62797;49.740;10.154;2022-11-20T03:44:03;1.10;81.90
74364;DHT22;62797;49.740;10.154;2022-11-20T03:46:29;1.10;81.90
74364;DHT22;62797;49.740;10.154;2022-11-20T03:48:56;1.10;81.80
74364;DHT22;62797;49.740;10.154;2022-11-20T03:51:23;1.10;81.90
74364;DHT22;62797;49.740;10.154;2022-11-20T03:53:51;1.10;81.80
74364;DHT22;62797;49.740;10.154;2022-11-20T03:56:20;1.10;81.80
74364;DHT22;62797;49.740;10.154;2022-11-20T03:58:46;1.00;81.80
74364;DHT22;62797;49.740;10.154;2022-11-20T04:01:13;1.10;81.70
74364;DHT22;62797;49.740;10.154;2022-11-20T04:03:40;1.10;81.80
74364;DHT22;62797;49.740;10.154;2022-11-20T04:06:17;1.10;82.10
74364;DHT22;62797;49.740;10.154;2022-11-20T04:08:43;1.10;81.90
74364;DHT22;62797;49.740;10.154;2022-11-20T04:11:14;1.10;82.10
74364;DHT22;62797;49.740;10.154;2022-11-20T04:13:41;1.10;81.90
74364;DHT22;62797;49.740;10.154;2022-11-20T04:16:08;1.10;81.70
74364;DHT22;62797;49.740;10.154;2022-11-20T04:18:35;1.10;81.80
74364;DHT22;62797;49.740;10.154;2022-11-20T04:21:01;1.10;81.70
74364;DHT22;62797;49.740;10.154;2022-11-20T04:23:27;1.10;81.90
74364;DHT22;62797;49.740;10.154;2022-11-20T04:25:52;1.10;82.00
74364;DHT22;62797;49.740;10.154;2022-11-20T04:28:18;1.10;82.20
74364;DHT22;62797;49.740;10.154;2022-11-20T04:30:44;1.00;82.10
74364;DHT22;62797;49.740;10.154;2022-11-20T04:33:10;1.00;82.00
74364;DHT22;62797;49.740;10.154;2022-11-20T04:35:36;1.10;82.30
74364;DHT22;62797;49.740;10.154;2022-11-20T04:38:02;1.10;82.60
74364;DHT22;62797;49.740;10.154;2022-11-20T04:40:28;1.10;82.30
74364;DHT22;62797;49.740;10.154;2022-11-20T04:42:54;1.10;82.70
74364;DHT22;62797;49.740;10.154;2022-11-20T04:45:20;1.10;82.60
74364;DHT22;62797;49.740;10.154;2022-11-20T04:47:45;1.10;82.60
74364;DHT22;62797;49.740;10.154;2022-11-20T04:50:11;1.00;82.20
74364;DHT22;62797;49.740;10.154;2022-11-20T04:52:37;1.10;82.30
74364;DHT22;62797;49.740;10.154;2022-11-20T04:55:02;1.10;82.40
74364;DHT22;62797;49.740;10.154;2022-11-20T04:57:28;1.10;82.50
74364;DHT22;62797;49.740;10.154;2022-11-20T04:59:53;1.10;82.50
74364;DHT22;62797;49.740;10.154;2022-11-20T05:02:20;1.10;82.40
74364;DHT22;62797;49.740;10.154;2022-11-20T05:04:46;1.10;82.60
74364;DHT22;62797;49.740;10.154;2022-11-20T05:07:12;1.20;82.70
74364;DHT22;62797;49.740;10.154;2022-11-20T05:09:38;1.20;82.60
74364;DHT22;62797;49.740;10.154;2022-11-20T05:12:04;1.20;82.70
74364;DHT22;62797;49.740;10.154;2022-11-20T05:14:29;1.20;82.90
74364;DHT22;62797;49.740;10.154;2022-11-20T05:16:55;1.20;82.90
74364;DHT22;62797;49.740;10.154;2022-11-20T05:19:20;1.20;82.60
74364;DHT22;62797;49.740;10.154;2022-11-20T05:21:46;1.20;82.50
74364;DHT22;62797;49.740;10.154;2022-11-20T05:24:11;1.20;82.60
74364;DHT22;62797;49.740;10.154;2022-11-20T05:26:37;1.20;82.50
74364;DHT22;62797;49.740;10.154;2022-11-20T05:29:03;1.20;82.40
74364;DHT22;62797;49.740;10.154;2022-11-20T05:31:29;1.20;82.50
74364;DHT22;62797;49.740;10.154;2022-11-20T05:33:56;1.20;82.60
74364;DHT22;62797;49.740;10.154;2022-11-20T05:36:22;1.30;82.50
74364;DHT22;62797;49.740;10.154;2022-11-20T05:38:47;1.30;82.10
74364;DHT22;62797;49.740;10.154;2022-11-20T05:41:15;1.20;81.90
74364;DHT22;62797;49.740;10.154;2022-11-20T05:43:43;1.20;82.00
74364;DHT22;62797;49.740;10.154;2022-11-20T05:46:12;1.20;82.30
74364;DHT22;62797;49.740;10.154;2022-11-20T05:48:38;1.20;81.90
74364;DHT22;62797;49.740;10.154;2022-11-20T05:51:06;1.30;82.10
74364;DHT22;62797;49.740;10.154;2022-11-20T05:53:33;1.30;82.50
74364;DHT22;62797;49.740;10.154;2022-11-20T05:56:07;1.30;82.30
74364;DHT22;62797;49.740;10.154;2022-11-20T05:58:35;1.30;82.40
74364;DHT22;62797;49.740;10.154;2022-11-20T06:03:34;1.30;82.40
74364;DHT22;62797;49.740;10.154;2022-11-20T06:06:01;1.30;82.10
74364;DHT22;62797;49.740;10.154;2022-11-20T06:08:27;1.30;82.20
74364;DHT22;62797;49.740;10.154;2022-11-20T06:10:53;1.30;82.00
74364;DHT22;62797;49.740;10.154;2022-11-20T06:13:18;1.30;82.10
74364;DHT22;62797;49.740;10.154;2022-11-20T06:15:50;1.30;82.30
74364;DHT22;62797;49.740;10.154;2022-11-20T06:18:17;1.30;82.00
74364;DHT22;62797;49.740;10.154;2022-11-20T06:20:43;1.30;82.30
74364;DHT22;62797;49.740;10.154;2022-11-20T06:23:08;1.40;82.20
74364;DHT22;62797;49.740;10.154;2022-11-20T06:25:38;1.40;82.20
74364;DHT22;62797;49.740;10.154;2022-11-20T06:28:03;1.40;82.10
74364;DHT22;62797;49.740;10.154;2022-11-20T06:30:29;1.40;82.30
74364;DHT22;62797;49.740;10.154;2022-11-20T06:32:54;1.40;82.40
74364;DHT22;62797;49.740;10.154;2022-11-20T06:35:20;1.40;82.40
74364;DHT22;62797;49.740;10.154;2022-11-20T06:37:46;1.40;82.00
74364;DHT22;62797;49.740;10.154;2022-11-20T06:40:11;1.40;82.20
74364;DHT22;62797;49.740;10.154;2022-11-20T06:42:37;1.40;82.10
74364;DHT22;62797;49.740;10.154;2022-11-20T06:45:03;1.50;82.40
74364;DHT22;62797;49.740;10.154;2022-11-20T06:47:28;1.50;82.50
74364;DHT22;62797;49.740;10.154;2022-11-20T06:49:54;1.40;82.10
74364;DHT22;62797;49.740;10.154;2022-11-20T06:52:19;1.40;82.30
74364;DHT22;62797;49.740;10.154;2022-11-20T06:54:45;1.40;82.30
74364;DHT22;62797;49.740;10.154;2022-11-20T06:57:10;1.40;82.30
74364;DHT22;62797;49.740;10.154;2022-11-20T06:59:36;1.40;82.40
74364;DHT22;62797;49.740;10.154;2022-11-20T07:02:01;1.50;82.60
74364;DHT22;62797;49.740;10.154;2022-11-20T07:04:27;1.40;82.40
74364;DHT22;62797;49.740;10.154;2022-11-20T07:06:53;1.40;81.90
74364;DHT22;62797;49.740;10.154;2022-11-20T07:09:18;1.50;82.20
74364;DHT22;62797;49.740;10.154;2022-11-20T07:11:44;1.40;82.40
74364;DHT22;62797;49.740;10.154;2022-11-20T07:14:09;1.50;83.30
74364;DHT22;62797;49.740;10.154;2022-11-20T07:16:35;1.50;82.60
74364;DHT22;62797;49.740;10.154;2022-11-20T07:19:01;1.50;82.80
74364;DHT22;62797;49.740;10.154;2022-11-20T07:21:26;1.50;82.50
74364;DHT22;62797;49.740;10.154;2022-11-20T07:23:52;1.60;82.70
74364;DHT22;62797;49.740;10.154;2022-11-20T07:26:17;1.50;82.70
74364;DHT22;62797;49.740;10.154;2022-11-20T07:28:44;1.60;82.70
74364;DHT22;62797;49.740;10.154;2022-11-20T07:31:10;1.60;82.80
74364;DHT22;62797;49.740;10.154;2022-11-20T07:33:37;1.60;82.50
74364;DHT22;62797;49.740;10.154;2022-11-20T07:36:03;1.60;82.60
74364;DHT22;62797;49.740;10.154;2022-11-20T07:38:30;1.60;82.40
74364;DHT22;62797;49.740;10.154;2022-11-20T07:40:58;1.60;82.70
74364;DHT22;62797;49.740;10.154;2022-11-20T07:43:26;1.60;82.50
74364;DHT22;62797;49.740;10.154;2022-11-20T07:45:55;1.60;82.30
74364;DHT22;62797;49.740;10.154;2022-11-20T07:48:20;1.70;82.70
74364;DHT22;62797;49.740;10.154;2022-11-20T07:50:46;1.70;82.50
74364;DHT22;62797;49.740;10.154;2022-11-20T07:53:11;1.70;82.40
74364;DHT22;62797;49.740;10.154;2022-11-20T07:55:39;1.70;82.30
74364;DHT22;62797;49.740;10.154;2022-11-20T07:58:04;1.70;82.00
74364;DHT22;62797;49.740;10.154;2022-11-20T08:00:30;1.70;82.00
74364;DHT22;62797;49.740;10.154;2022-11-20T08:02:55;1.70;81.80
74364;DHT22;62797;49.740;10.154;2022-11-20T08:05:21;1.70;81.90
74364;DHT22;62797;49.740;10.154;2022-11-20T08:07:47;1.70;82.20
74364;DHT22;62797;49.740;10.154;2022-11-20T08:10:14;1.70;82.10
74364;DHT22;62797;49.740;10.154;2022-11-20T08:12:49;1.70;82.40
74364;DHT22;62797;49.740;10.154;2022-11-20T08:15:33;1.80;82.50
74364;DHT22;62797;49.740;10.154;2022-11-20T08:18:07;1.80;82.50
74364;DHT22;62797;49.740;10.154;2022-11-20T08:20:34;1.90;82.90
74364;DHT22;62797;49.740;10.154;2022-11-20T08:23:05;1.80;82.50
74364;DHT22;62797;49.740;10.154;2022-11-20T08:25:32;1.80;82.70
74364;DHT22;62797;49.740;10.154;2022-11-20T08:27:59;1.80;82.90
74364;DHT22;62797;49.740;10.154;2022-11-20T08:30:26;1.70;82.40
74364;DHT22;62797;49.740;10.154;2022-11-20T08:32:51;1.70;82.60
74364;DHT22;62797;49.740;10.154;2022-11-20T08:35:17;1.70;82.60
74364;DHT22;62797;49.740;10.154;2022-11-20T08:37:46;1.70;82.60
74364;DHT22;62797;49.740;10.154;2022-11-20T08:40:12;1.60;82.10
74364;DHT22;62797;49.740;10.154;2022-11-20T08:42:48;1.60;82.40
74364;DHT22;62797;49.740;10.154;2022-11-20T08:45:14;1.60;82.30
74364;DHT22;62797;49.740;10.154;2022-11-20T08:47:40;1.60;82.60
74364;DHT22;62797;49.740;10.154;2022-11-20T08:50:07;1.70;83.00
74364;DHT22;62797;49.740;10.154;2022-11-20T08:52:33;1.70;82.80
74364;DHT22;62797;49.740;10.154;2022-11-20T08:54:58;1.70;83.00
74364;DHT22;62797;49.740;10.154;2022-11-20T08:57:24;1.70;83.20
74364;DHT22;62797;49.740;10.154;2022-11-20T08:59:49;1.70;83.20
74364;DHT22;62797;49.740;10.154;2022-11-20T09:02:15;1.80;82.90
74364;DHT22;62797;49.740;10.154;2022-11-20T09:04:40;1.80;83.00
74364;DHT22;62797;49.740;10.154;2022-11-20T09:07:06;1.80;83.00
74364;DHT22;62797;49.740;10.154;2022-11-20T09:09:31;1.90;83.00
74364;DHT22;62797;49.740;10.154;2022-11-20T09:11:58;2.00;83.10
74364;DHT22;62797;49.740;10.154;2022-11-20T09:14:23;2.00;83.50
74364;DHT22;62797;49.740;10.154;2022-11-20T09:16:54;2.00;83.40
74364;DHT22;62797;49.740;10.154;2022-11-20T09:19:20;2.00;83.40
74364;DHT22;62797;49.740;10.154;2022-11-20T09:21:45;2.10;83.50
74364;DHT22;62797;49.740;10.154;2022-11-20T09:24:11;2.10;83.30
74364;DHT22;62797;49.740;10.154;2022-11-20T09:26:37;2.20;83.50
74364;DHT22;62797;49.740;10.154;2022-11-20T09:29:02;2.20;83.40
74364;DHT22;62797;49.740;10.154;2022-11-20T09:31:28;2.30;84.00
74364;DHT22;62797;49.740;10.154;2022-11-20T09:33:53;2.30;83.80
74364;DHT22;62797;49.740;10.154;2022-11-20T09:36:19;2.30;83.80
74364;DHT22;62797;49.740;10.154;2022-11-20T09:38:45;2.40;83.70
74364;DHT22;62797;49.740;10.154;2022-11-20T09:50:29;2.30;83.00
74364;DHT22;62797;49.740;10.154;2022-11-20T09:55:31;2.30;83.10
74364;DHT22;62797;49.740;10.154;2022-11-20T09:57:57;2.30;83.30
74364;DHT22;62797;49.740;10.154;2022-11-20T10:00:25;2.30;82.90
74364;DHT22;62797;49.740;10.154;2022-11-20T10:03:23;2.30;83.10
74364;DHT22;62797;49.740;10.154;2022-11-20T10:05:54;2.40;84.10
74364;DHT22;62797;49.740;10.154;2022-11-20T10:08:23;2.30;82.80
74364;DHT22;62797;49.740;10.154;2022-11-20T10:10:56;2.30;83.20
74364;DHT22;62797;49.740;10.154;2022-11-20T10:19:34;2.40;83.80
74364;DHT22;62797;49.740;10.154;2022-11-20T10:30:40;2.70;84.20
74364;DHT22;62797;49.740;10.154;2022-11-20T10:33:22;2.70;84.20
74364;DHT22;62797;49.740;10.154;2022-11-20T10:35:52;2.80;84.40
74364;DHT22;62797;49.740;10.154;2022-11-20T10:38:40;2.80;84.40
74364;DHT22;62797;49.740;10.154;2022-11-20T10:41:17;3.10;85.00
74364;DHT22;62797;49.740;10.154;2022-11-20T10:44:03;3.30;85.20
74364;DHT22;62797;49.740;10.154;2022-11-20T10:46:43;3.50;85.50
74364;DHT22;62797;49.740;10.154;2022-11-20T10:49:17;3.50;85.20
74364;DHT22;62797;49.740;10.154;2022-11-20T10:52:13;3.40;84.90
74364;DHT22;62797;49.740;10.154;2022-11-20T10:57:46;3.60;85.60
74364;DHT22;62797;49.740;10.154;2022-11-20T11:00:13;3.60;85.20
74364;DHT22;62797;49.740;10.154;2022-11-20T11:02:41;3.60;84.80
74364;DHT22;62797;49.740;10.154;2022-11-20T11:07:42;3.60;85.10
74364;DHT22;62797;49.740;10.154;2022-11-20T11:10:35;3.60;85.00
74364;DHT22;62797;49.740;10.154;2022-11-20T11:13:01;3.80;86.00
74364;DHT22;62797;49.740;10.154;2022-11-20T11:15:38;3.80;85.50
74364;DHT22;62797;49.740;10.154;2022-11-20T11:18:05;4.10;85.80
74364;DHT22;62797;49.740;10.154;2022-11-20T11:20:33;4.20;85.90
74364;DHT22;62797;49.740;10.154;2022-11-20T11:22:59;4.20;85.60
74364;DHT22;62797;49.740;10.154;2022-11-20T11:25:26;4.40;85.70
74364;DHT22;62797;49.740;10.154;2022-11-20T11:27:53;4.30;85.00
74364;DHT22;62797;49.740;10.154;2022-11-20T11:30:22;4.30;84.50
74364;DHT22;62797;49.740;10.154;2022-11-20T11:32:48;4.20;83.20
74364;DHT22;62797;49.740;10.154;2022-11-20T11:35:24;4.10;83.30
74364;DHT22;62797;49.740;10.154;2022-11-20T11:37:51;4.20;83.40
74364;DHT22;62797;49.740;10.154;2022-11-20T11:40:19;4.10;83.00
74364;DHT22;62797;49.740;10.154;2022-11-20T11:42:54;4.10;83.10
74364;DHT22;62797;49.740;10.154;2022-11-20T11:45:21;4.10;83.30
74364;DHT22;62797;49.740;10.154;2022-11-20T11:47:47;4.00;82.90
74364;DHT22;62797;49.740;10.154;2022-11-20T12:03:48;4.00;83.00
74364;DHT22;62797;49.740;10.154;2022-11-20T12:06:16;4.00;83.40
74364;DHT22;62797;49.740;10.154;2022-11-20T12:14:20;3.90;82.20
74364;DHT22;62797;49.740;10.154;2022-11-20T12:16:50;3.90;82.40
74364;DHT22;62797;49.740;10.154;2022-11-20T12:19:17;3.90;82.80
74364;DHT22;62797;49.740;10.154;2022-11-20T12:30:15;4.10;82.90
74364;DHT22;62797;49.740;10.154;2022-11-20T12:33:12;4.10;83.00
74364;DHT22;62797;49.740;10.154;2022-11-20T12:50:17;3.80;81.80
74364;DHT22;62797;49.740;10.154;2022-11-20T12:52:51;3.90;82.80
74364;DHT22;62797;49.740;10.154;2022-11-20T12:58:36;3.80;82.60
74364;DHT22;62797;49.740;10.154;2022-11-20T13:01:25;3.90;82.80
74364;DHT22;62797;49.740;10.154;2022-11-20T13:04:29;3.80;83.10
74364;DHT22;62797;49.740;10.154;2022-11-20T13:07:11;3.90;83.50
74364;DHT22;62797;49.740;10.154;2022-11-20T13:09:48;3.90;83.60
74364;DHT22;62797;49.740;10.154;2022-11-20T13:12:34;4.00;83.20
74364;DHT22;62797;49.740;10.154;2022-11-20T13:18:11;4.00;82.70
74364;DHT22;62797;49.740;10.154;2022-11-20T13:20:43;4.00;81.30
74364;DHT22;62797;49.740;10.154;2022-11-20T13:23:09;4.00;82.30
74364;DHT22;62797;49.740;10.154;2022-11-20T13:25:37;4.00;82.80
74364;DHT22;62797;49.740;10.154;2022-11-20T13:28:27;4.00;82.80
74364;DHT22;62797;49.740;10.154;2022-11-20T13:30:52;4.00;82.60
74364;DHT22;62797;49.740;10.154;2022-11-20T13:33:33;4.00;83.00
74364;DHT22;62797;49.740;10.154;2022-11-20T13:36:06;4.00;83.20
74364;DHT22;62797;49.740;10.154;2022-11-20T13:38:51;4.00;83.40
74364;DHT22;62797;49.740;10.154;2022-11-20T13:41:28;4.00;82.80
74364;DHT22;62797;49.740;10.154;2022-11-20T13:43:57;4.00;82.90
74364;DHT22;62797;49.740;10.154;2022-11-20T13:46:23;4.00;83.10
74364;DHT22;62797;49.740;10.154;2022-11-20T13:48:51;4.10;83.60
74364;DHT22;62797;49.740;10.154;2022-11-20T13:51:42;4.20;84.00
74364;DHT22;62797;49.740;10.154;2022-11-20T13:57:40;4.30;84.10
74364;DHT22;62797;49.740;10.154;2022-11-20T14:00:11;4.30;83.90
74364;DHT22;62797;49.740;10.154;2022-11-20T14:02:37;4.20;84.00
74364;DHT22;62797;49.740;10.154;2022-11-20T14:05:04;4.20;83.80
74364;DHT22;62797;49.740;10.154;2022-11-20T14:07:39;4.40;84.10
74364;DHT22;62797;49.740;10.154;2022-11-20T14:10:18;4.40;84.40
74364;DHT22;62797;49.740;10.154;2022-11-20T14:12:43;4.40;84.60
74364;DHT22;62797;49.740;10.154;2022-11-20T14:15:33;4.50;84.70
74364;DHT22;62797;49.740;10.154;2022-11-20T14:17:59;4.50;84.70
74364;DHT22;62797;49.740;10.154;2022-11-20T14:20:38;4.50;84.80
74364;DHT22;62797;49.740;10.154;2022-11-20T14:23:04;4.50;84.90
74364;DHT22;62797;49.740;10.154;2022-11-20T14:25:30;4.60;84.70
74364;DHT22;62797;49.740;10.154;2022-11-20T14:28:01;4.50;84.60
74364;DHT22;62797;49.740;10.154;2022-11-20T14:30:42;4.60;84.60
74364;DHT22;62797;49.740;10.154;2022-11-20T14:33:11;4.60;84.50
74364;DHT22;62797;49.740;10.154;2022-11-20T14:35:44;4.60;84.40
74364;DHT22;62797;49.740;10.154;2022-11-20T14:38:13;4.60;84.30
74364;DHT22;62797;49.740;10.154;2022-11-20T14:40:39;4.60;84.40
74364;DHT22;62797;49.740;10.154;2022-11-20T14:43:26;4.50;84.40
74364;DHT22;62797;49.740;10.154;2022-11-20T14:46:04;4.50;84.50
74364;DHT22;62797;49.740;10.154;2022-11-20T14:48:50;4.50;84.70
74364;DHT22;62797;49.740;10.154;2022-11-20T14:51:32;4.50;84.90
74364;DHT22;62797;49.740;10.154;2022-11-20T14:54:15;4.60;84.90
74364;DHT22;62797;49.740;10.154;2022-11-20T14:56:41;4.50;84.80
74364;DHT22;62797;49.740;10.154;2022-11-20T14:59:08;4.50;84.80
74364;DHT22;62797;49.740;10.154;2022-11-20T15:01:34;4.50;84.20
74364;DHT22;62797;49.740;10.154;2022-11-20T15:04:08;4.40;84.20
74364;DHT22;62797;49.740;10.154;2022-11-20T15:06:34;4.40;84.30
74364;DHT22;62797;49.740;10.154;2022-11-20T15:09:03;4.40;84.40
74364;DHT22;62797;49.740;10.154;2022-11-20T15:11:31;4.50;84.70
74364;DHT22;62797;49.740;10.154;2022-11-20T15:13:59;4.50;84.60
74364;DHT22;62797;49.740;10.154;2022-11-20T15:16:26;4.40;84.70
74364;DHT22;62797;49.740;10.154;2022-11-20T15:18:53;4.40;84.30
74364;DHT22;62797;49.740;10.154;2022-11-20T15:21:19;4.40;84.20
74364;DHT22;62797;49.740;10.154;2022-11-20T15:23:46;4.40;84.50
74364;DHT22;62797;49.740;10.154;2022-11-20T15:26:15;4.40;84.70
74364;DHT22;62797;49.740;10.154;2022-11-20T15:28:44;4.40;84.80
74364;DHT22;62797;49.740;10.154;2022-11-20T15:31:15;4.40;84.80
74364;DHT22;62797;49.740;10.154;2022-11-20T15:33:41;4.40;84.60
74364;DHT22;62797;49.740;10.154;2022-11-20T15:36:07;4.30;84.70
74364;DHT22;62797;49.740;10.154;2022-11-20T15:38:33;4.30;84.70
74364;DHT22;62797;49.740;10.154;2022-11-20T15:40:58;4.30;84.80
74364;DHT22;62797;49.740;10.154;2022-11-20T15:43:24;4.30;84.90
74364;DHT22;62797;49.740;10.154;2022-11-20T15:45:55;4.40;84.80
74364;DHT22;62797;49.740;10.154;2022-11-20T15:48:32;4.30;85.40
74364;DHT22;62797;49.740;10.154;2022-11-20T15:51:04;4.30;84.60
74364;DHT22;62797;49.740;10.154;2022-11-20T15:53:32;4.30;84.50
74364;DHT22;62797;49.740;10.154;2022-11-20T15:55:57;4.30;84.40
74364;DHT22;62797;49.740;10.154;2022-11-20T15:58:23;4.20;84.00
74364;DHT22;62797;49.740;10.154;2022-11-20T16:00:50;4.10;83.70
74364;DHT22;62797;49.740;10.154;2022-11-20T16:03:16;4.10;83.80
74364;DHT22;62797;49.740;10.154;2022-11-20T16:05:42;4.00;83.70
74364;DHT22;62797;49.740;10.154;2022-11-20T16:08:08;4.00;83.70
74364;DHT22;62797;49.740;10.154;2022-11-20T16:10:33;3.90;84.00
74364;DHT22;62797;49.740;10.154;2022-11-20T16:12:59;4.00;84.20
74364;DHT22;62797;49.740;10.154;2022-11-20T16:15:50;3.90;84.10
74364;DHT22;62797;49.740;10.154;2022-11-20T16:18:18;3.90;83.70
74364;DHT22;62797;49.740;10.154;2022-11-20T16:20:50;3.90;83.80
74364;DHT22;62797;49.740;10.154;2022-11-20T16:23:15;3.90;83.90
74364;DHT22;62797;49.740;10.154;2022-11-20T16:25:42;3.90;83.80
74364;DHT22;62797;49.740;10.154;2022-11-20T16:28:07;3.90;83.80
74364;DHT22;62797;49.740;10.154;2022-11-20T16:30:33;3.80;83.80
74364;DHT22;62797;49.740;10.154;2022-11-20T16:32:59;3.80;83.80
74364;DHT22;62797;49.740;10.154;2022-11-20T16:35:26;3.80;84.20
74364;DHT22;62797;49.740;10.154;2022-11-20T16:37:53;3.80;83.90
74364;DHT22;62797;49.740;10.154;2022-11-20T16:40:19;3.70;83.80
74364;DHT22;62797;49.740;10.154;2022-11-20T16:42:44;3.70;83.80
74364;DHT22;62797;49.740;10.154;2022-11-20T16:45:10;3.60;83.50
74364;DHT22;62797;49.740;10.154;2022-11-20T16:47:36;3.60;83.50
74364;DHT22;62797;49.740;10.154;2022-11-20T16:50:03;3.50;83.60
74364;DHT22;62797;49.740;10.154;2022-11-20T16:52:29;3.50;83.40
74364;DHT22;62797;49.740;10.154;2022-11-20T16:54:55;3.50;83.80
74364;DHT22;62797;49.740;10.154;2022-11-20T16:57:20;3.50;84.00
74364;DHT22;62797;49.740;10.154;2022-11-20T16:59:47;3.50;84.30
74364;DHT22;62797;49.740;10.154;2022-11-20T17:02:13;3.60;84.20
74364;DHT22;62797;49.740;10.154;2022-11-20T17:04:38;3.60;84.40
74364;DHT22;62797;49.740;10.154;2022-11-20T17:07:04;3.60;84.20